Time;durP1;ratioP1;P1;durP2;ratioP2;P2;SDS_P1;SDS_P2;PMS_P1;PMS_P2;Temp;Humidity;BMP_temperature;BMP_pressure;BME280_temperature;BME280_humidity;BME280_pressure;Samples;Min_cycle;Max_cycle;Signal;HPM_P1;HPM_P2
2021/12/11 00:00:36;;;;;;;;;;;;;;;5.00;68.71;98938.34;4451741;32;33648;-63
2021/12/11 00:03:05;;;;;;;;;;;;;;;4.97;69.46;98945.03;4450579;32;34603;-63
2021/12/11 00:05:33;;;;;;;;;;;;;;;4.60;70.85;98946.47;4452073;32;34182;-63
2021/12/11 00:08:00;;;;;;;;;;;;;;;4.78;69.79;98946.59;4452416;32;34068;-63
2021/12/11 00:10:29;;;;;;;;;;;;;;;5.14;68.45;98951.91;4454263;32;33353;-63
2021/12/11 00:12:59;;;;;;;;;;;;;;;4.65;70.32;98959.53;4453571;32;33798;-63
2021/12/11 00:15:28;;;;;;;;;;;;;;;4.98;69.34;98964.72;4453815;32;34157;-63
2021/12/11 00:18:00;;;;;;;;;;;;;;;5.04;69.13;98970.19;4452978;32;34329;-63
2021/12/11 00:20:29;;;;;;;;;;;;;;;4.97;69.30;98970.69;4454551;32;33561;-63
2021/12/11 00:22:56;;;;;;;;;;;;;;;4.91;69.50;98968.66;4454862;32;34930;-63
2021/12/11 00:25:23;;;;;;;;;;;;;;;4.83;69.83;98970.81;4451818;32;34227;-63
2021/12/11 00:27:51;;;;;;;;;;;;;;;4.89;69.51;98981.41;4451924;32;34093;-63
2021/12/11 00:30:24;;;;;;;;;;;;;;;4.90;69.37;98983.16;4453411;32;33581;-63
2021/12/11 00:32:56;;;;;;;;;;;;;;;4.75;69.94;98987.47;4453086;32;33779;-63
2021/12/11 00:35:24;;;;;;;;;;;;;;;5.11;68.71;98992.81;4453917;32;34156;-63
2021/12/11 00:37:51;;;;;;;;;;;;;;;4.97;69.02;99002.34;4454583;32;34504;-64
2021/12/11 00:40:22;;;;;;;;;;;;;;;5.06;68.61;99009.66;4453288;32;34397;-64
2021/12/11 00:42:56;;;;;;;;;;;;;;;5.13;68.57;99011.75;4455180;32;35081;-64
2021/12/11 00:45:25;;;;;;;;;;;;;;;5.04;68.98;99011.25;4452518;32;34194;-64
2021/12/11 00:47:54;;;;;;;;;;;;;;;5.51;67.43;99020.59;4457656;32;34745;-64
2021/12/11 00:50:25;;;;;;;;;;;;;;;5.49;67.54;99017.06;4460693;32;33660;-65
2021/12/11 00:52:54;;;;;;;;;;;;;;;5.63;66.94;99034.06;4455092;32;35233;-64
2021/12/11 00:55:25;;;;;;;;;;;;;;;5.62;66.93;99034.91;4452938;32;33944;-64
2021/12/11 00:58:06;;;;;;;;;;;;;;;5.10;68.57;99048.41;4453763;32;34457;-64
2021/12/11 01:00:39;;;;;;;;;;;;;;;4.79;69.76;99051.00;4453996;32;34318;-64
2021/12/11 01:03:08;;;;;;;;;;;;;;;4.68;70.40;99044.38;4455097;32;34013;-64
2021/12/11 01:05:37;;;;;;;;;;;;;;;5.01;69.25;99041.91;4455423;32;34144;-64
2021/12/11 01:08:12;;;;;;;;;;;;;;;5.16;68.32;99042.75;4458694;32;34442;-64
2021/12/11 01:10:40;;;;;;;;;;;;;;;5.29;67.92;99040.03;4441604;32;31739;-64
2021/12/11 01:13:07;;;;;;;;;;;;;;;5.05;68.92;99042.16;4453242;32;34674;-64
2021/12/11 01:15:39;;;;;;;;;;;;;;;5.02;68.75;99044.56;4450573;32;33942;-64
2021/12/11 01:18:22;;;;;;;;;;;;;;;4.78;69.50;99049.22;4455660;32;34057;-64
2021/12/11 01:21:00;;;;;;;;;;;;;;;4.86;69.70;99047.94;4454732;32;34284;-64
2021/12/11 01:25:57;;;;;;;;;;;;;;;5.32;68.02;99062.41;4440259;32;34163;-64
2021/12/11 01:28:25;;;;;;;;;;;;;;;5.40;67.56;99052.53;4454711;32;34259;-64
2021/12/11 01:30:52;;;;;;;;;;;;;;;5.19;68.02;99054.84;4454640;32;33705;-64
2021/12/11 01:33:20;;;;;;;;;;;;;;;5.48;67.56;99057.28;4464007;32;34072;-64
2021/12/11 01:35:47;;;;;;;;;;;;;;;5.23;68.05;99047.38;4463736;32;34637;-64
2021/12/11 01:38:16;;;;;;;;;;;;;;;5.37;67.72;99062.66;4463299;32;35126;-64
2021/12/11 01:40:45;;;;;;;;;;;;;;;5.63;66.94;99056.31;4453955;32;34521;-64
2021/12/11 01:43:12;;;;;;;;;;;;;;;5.29;68.11;99060.56;4454334;32;34246;-64
2021/12/11 01:45:50;;;;;;;;;;;;;;;5.34;67.87;99067.62;4460883;32;34079;-64
2021/12/11 01:48:18;;;;;;;;;;;;;;;5.41;67.64;99064.56;4455672;32;34316;-65
2021/12/11 01:50:48;;;;;;;;;;;;;;;5.45;67.40;99071.66;4459887;32;33397;-64
2021/12/11 01:53:20;;;;;;;;;;;;;;;5.32;67.70;99081.25;4441131;32;32507;-64
2021/12/11 01:55:49;;;;;;;;;;;;;;;5.49;67.14;99083.88;4433359;32;34971;-64
2021/12/11 01:58:21;;;;;;;;;;;;;;;5.49;67.55;99078.72;4456281;32;34356;-64
2021/12/11 02:01:12;;;;;;;;;;;;;;;5.35;67.98;99072.84;4454257;32;33457;-64
2021/12/11 02:03:40;;;;;;;;;;;;;;;5.32;67.99;99071.00;4428643;27;34096;-83
2021/12/11 02:06:07;;;;;;;;;;;;;;;5.37;67.90;99070.34;4439777;27;33716;-62
2021/12/11 02:08:35;;;;;;;;;;;;;;;5.32;68.09;99060.72;4465976;32;32625;-62
2021/12/11 02:11:05;;;;;;;;;;;;;;;5.48;67.72;99061.53;4470285;32;33307;-62
2021/12/11 02:13:46;;;;;;;;;;;;;;;5.23;68.53;99060.22;4465432;32;33658;-62
2021/12/11 02:16:24;;;;;;;;;;;;;;;5.09;69.16;99056.03;4478734;32;35459;-63
2021/12/11 02:18:54;;;;;;;;;;;;;;;4.88;69.84;99050.59;4463847;32;34544;-62
2021/12/11 02:21:23;;;;;;;;;;;;;;;4.76;70.40;99047.38;4473948;32;33999;-62
2021/12/11 02:23:51;;;;;;;;;;;;;;;4.89;70.14;99048.13;4468260;32;33976;-62
2021/12/11 02:26:19;;;;;;;;;;;;;;;4.85;70.15;99045.31;4460729;32;33307;-62
2021/12/11 02:28:48;;;;;;;;;;;;;;;5.13;69.15;99055.41;4450530;32;33656;-62
2021/12/11 02:31:27;;;;;;;;;;;;;;;5.07;69.19;99053.38;4468830;32;33165;-62
2021/12/11 02:33:56;;;;;;;;;;;;;;;5.25;69.01;99053.50;4470231;32;34018;-62
2021/12/11 02:36:25;;;;;;;;;;;;;;;5.22;69.28;99048.19;4469681;32;33897;-62
2021/12/11 02:38:52;;;;;;;;;;;;;;;5.37;68.38;99052.38;4467585;32;33898;-62
2021/12/11 02:41:30;;;;;;;;;;;;;;;5.11;69.26;99054.44;4477434;32;33588;-62
2021/12/11 02:44:00;;;;;;;;;;;;;;;5.30;68.53;99046.91;4466668;32;33845;-62
2021/12/11 02:46:33;;;;;;;;;;;;;;;5.28;68.60;99045.94;4468050;32;34262;-62
2021/12/11 02:49:06;;;;;;;;;;;;;;;5.58;67.57;99043.25;4469351;32;35045;-62
2021/12/11 02:51:35;;;;;;;;;;;;;;;5.51;67.96;99046.28;4464897;32;33718;-62
2021/12/11 02:54:09;;;;;;;;;;;;;;;5.32;68.42;99049.56;4468581;32;33456;-62
2021/12/11 02:56:43;;;;;;;;;;;;;;;5.45;68.14;99051.13;4469586;32;35535;-62
2021/12/11 02:59:13;;;;;;;;;;;;;;;5.35;68.41;99043.69;4471626;32;33840;-62
2021/12/11 03:01:46;;;;;;;;;;;;;;;5.47;68.05;99040.09;4447686;32;33354;-62
2021/12/11 03:04:20;;;;;;;;;;;;;;;5.34;68.74;99041.94;4468434;32;33980;-62
2021/12/11 03:06:50;;;;;;;;;;;;;;;4.74;70.68;99026.75;4470025;32;34963;-62
2021/12/11 03:09:19;;;;;;;;;;;;;;;4.68;71.20;99026.44;4471940;32;34488;-62
2021/12/11 03:11:46;;;;;;;;;;;;;;;4.89;70.39;99032.72;4477120;32;34195;-62
2021/12/11 03:14:14;;;;;;;;;;;;;;;4.52;71.23;99034.94;4468128;32;33916;-62
2021/12/11 03:16:42;;;;;;;;;;;;;;;4.46;72.04;99040.63;4475097;32;34764;-62
2021/12/11 03:19:10;;;;;;;;;;;;;;;4.77;70.67;99044.91;4468169;32;34284;-62
2021/12/11 03:21:38;;;;;;;;;;;;;;;5.21;69.11;99056.69;4469821;32;33139;-62
2021/12/11 03:24:06;;;;;;;;;;;;;;;5.16;69.29;99065.84;4470937;32;33736;-62
2021/12/11 03:26:33;;;;;;;;;;;;;;;5.59;67.52;99073.25;4469393;32;33857;-62
2021/12/11 03:29:00;;;;;;;;;;;;;;;5.58;67.54;99074.09;4467910;32;34618;-62
2021/12/11 03:31:28;;;;;;;;;;;;;;;5.74;67.18;99082.56;4469579;32;33347;-62
2021/12/11 03:33:56;;;;;;;;;;;;;;;5.59;67.31;99086.09;4467521;32;33721;-63
2021/12/11 03:36:24;;;;;;;;;;;;;;;5.68;66.92;99094.31;4462599;32;35103;-62
2021/12/11 03:38:53;;;;;;;;;;;;;;;5.13;68.94;99101.59;4470737;32;34520;-62
2021/12/11 03:41:21;;;;;;;;;;;;;;;4.46;71.21;99107.28;4468292;32;33672;-62
2021/12/11 03:43:48;;;;;;;;;;;;;;;5.29;68.27;99108.44;4469326;32;34795;-62
2021/12/11 03:46:17;;;;;;;;;;;;;;;5.67;66.64;99112.22;4469231;32;34688;-62
2021/12/11 03:48:50;;;;;;;;;;;;;;;5.82;66.06;99104.44;4467748;32;34186;-62
2021/12/11 03:51:18;;;;;;;;;;;;;;;5.52;66.86;99114.84;4470181;32;33605;-62
2021/12/11 03:53:45;;;;;;;;;;;;;;;5.60;66.55;99112.66;4467444;32;34072;-62
2021/12/11 03:56:13;;;;;;;;;;;;;;;5.65;66.50;99104.41;4473960;32;34950;-62
2021/12/11 03:58:48;;;;;;;;;;;;;;;5.48;66.94;99107.78;4467668;32;35249;-62
2021/12/11 04:01:18;;;;;;;;;;;;;;;5.51;67.06;99102.81;4472941;32;33329;-62
2021/12/11 04:03:47;;;;;;;;;;;;;;;5.07;68.31;99099.59;4468845;32;32722;-62
2021/12/11 04:06:14;;;;;;;;;;;;;;;4.56;70.12;99097.53;4468031;32;34301;-62
2021/12/11 04:08:41;;;;;;;;;;;;;;;4.26;70.94;99097.56;4469073;32;35033;-62
2021/12/11 04:11:15;;;;;;;;;;;;;;;4.46;69.58;99099.59;4469012;32;33650;-62
2021/12/11 04:13:42;;;;;;;;;;;;;;;4.15;70.76;99099.47;4471037;32;33325;-62
2021/12/11 04:16:09;;;;;;;;;;;;;;;4.25;70.33;99101.81;4470463;32;34592;-62
2021/12/11 04:18:37;;;;;;;;;;;;;;;4.09;70.59;99112.81;4470651;32;34032;-62
2021/12/11 04:21:05;;;;;;;;;;;;;;;3.89;71.59;99126.13;4468692;32;31917;-62
2021/12/11 04:23:32;;;;;;;;;;;;;;;3.71;72.04;99116.56;4466292;32;34048;-62
2021/12/11 04:25:59;;;;;;;;;;;;;;;3.52;72.98;99111.09;4471109;32;34124;-63
2021/12/11 04:28:29;;;;;;;;;;;;;;;3.72;72.32;99117.44;4470930;32;33934;-62
2021/12/11 04:31:03;;;;;;;;;;;;;;;3.84;71.54;99127.53;4470313;32;34075;-62
2021/12/11 04:33:33;;;;;;;;;;;;;;;4.32;69.50;99118.41;4467200;32;34650;-62
2021/12/11 04:36:00;;;;;;;;;;;;;;;4.45;69.55;99122.59;4469272;32;34190;-62
2021/12/11 04:38:27;;;;;;;;;;;;;;;4.44;69.41;99129.41;4464795;32;34261;-62
2021/12/11 04:40:57;;;;;;;;;;;;;;;4.21;69.99;99134.84;4467052;32;32900;-62
2021/12/11 04:43:25;;;;;;;;;;;;;;;4.11;70.49;99134.31;4470510;32;34120;-62
2021/12/11 04:45:59;;;;;;;;;;;;;;;4.18;70.16;99129.56;4455681;32;34029;-62
2021/12/11 04:48:39;;;;;;;;;;;;;;;3.97;70.71;99135.16;4470070;32;35227;-62
2021/12/11 04:51:24;;;;;;;;;;;;;;;4.11;70.34;99128.28;4470488;32;34355;-62
2021/12/11 04:54:29;;;;;;;;;;;;;;;3.53;72.46;99133.34;4467874;32;35033;-62
2021/12/11 05:02:15;;;;;;;;;;;;;;;3.78;71.86;99150.22;4472238;32;34097;-62
2021/12/11 05:09:58;;;;;;;;;;;;;;;3.63;72.26;99156.19;4473370;32;35074;-62
2021/12/11 05:14:53;;;;;;;;;;;;;;;3.86;71.43;99167.84;4472253;32;34277;-62
2021/12/11 05:17:20;;;;;;;;;;;;;;;3.95;70.98;99177.75;4467474;32;34913;-62
2021/12/11 05:19:52;;;;;;;;;;;;;;;3.67;71.52;99177.72;4476495;32;34324;-62
2021/12/11 05:22:19;;;;;;;;;;;;;;;3.77;71.03;99168.94;4471539;32;33495;-62
2021/12/11 05:24:48;;;;;;;;;;;;;;;3.76;70.93;99164.59;4471069;32;34776;-62
2021/12/11 05:27:15;;;;;;;;;;;;;;;3.92;70.16;99169.84;4469030;32;34852;-62
2021/12/11 05:29:43;;;;;;;;;;;;;;;3.52;71.80;99172.56;4469037;32;34199;-62
2021/12/11 05:32:12;;;;;;;;;;;;;;;3.26;72.67;99161.53;4469790;32;32739;-62
2021/12/11 05:34:40;;;;;;;;;;;;;;;3.13;73.12;99164.16;4458089;32;32341;-62
2021/12/11 05:37:07;;;;;;;;;;;;;;;2.95;73.71;99172.41;4469899;32;34309;-62
2021/12/11 05:39:34;;;;;;;;;;;;;;;3.63;71.40;99174.12;4458368;32;35118;-62
2021/12/11 05:42:02;;;;;;;;;;;;;;;3.79;70.76;99182.75;4468140;32;34110;-62
2021/12/11 05:44:29;;;;;;;;;;;;;;;3.29;72.29;99187.34;4470782;32;33616;-62
2021/12/11 05:46:57;;;;;;;;;;;;;;;3.14;73.19;99177.00;4473701;32;34408;-62
2021/12/11 05:49:25;;;;;;;;;;;;;;;3.47;71.84;99181.62;4467587;32;34628;-62
2021/12/11 05:51:52;;;;;;;;;;;;;;;3.39;72.02;99183.69;4469414;32;33760;-62
2021/12/11 05:54:24;;;;;;;;;;;;;;;3.19;72.92;99178.97;4458360;32;32433;-62
2021/12/11 05:56:54;;;;;;;;;;;;;;;3.61;71.70;99191.06;4472620;32;34725;-62
2021/12/11 05:59:21;;;;;;;;;;;;;;;3.73;71.06;99203.75;4452881;32;35066;-62
2021/12/11 06:01:51;;;;;;;;;;;;;;;3.83;70.80;99210.31;4474435;32;33301;-62
2021/12/11 06:04:24;;;;;;;;;;;;;;;3.43;72.04;99210.38;4455459;32;34586;-62
2021/12/11 06:06:51;;;;;;;;;;;;;;;3.35;71.97;99213.31;4474906;32;34253;-62
2021/12/11 06:09:20;;;;;;;;;;;;;;;3.22;72.31;99222.69;4453587;32;34069;-62
2021/12/11 06:11:48;;;;;;;;;;;;;;;3.52;71.29;99231.44;4455604;32;32879;-62
2021/12/11 06:14:17;;;;;;;;;;;;;;;3.29;71.83;99241.09;4471965;32;34906;-62
2021/12/11 06:16:44;;;;;;;;;;;;;;;3.37;72.21;99249.28;4457785;32;32657;-62
2021/12/11 06:19:12;;;;;;;;;;;;;;;3.37;72.33;99261.19;4468415;32;33664;-62
2021/12/11 06:21:39;;;;;;;;;;;;;;;3.44;72.11;99273.59;4471311;32;34326;-62
2021/12/11 06:24:06;;;;;;;;;;;;;;;3.83;70.61;99275.25;4457356;32;34188;-62
2021/12/11 06:26:34;;;;;;;;;;;;;;;3.84;70.35;99281.25;4471722;32;33975;-62
2021/12/11 06:29:01;;;;;;;;;;;;;;;3.98;69.79;99282.09;4470978;32;33118;-62
2021/12/11 06:31:28;;;;;;;;;;;;;;;4.18;68.99;99289.34;4469160;32;33356;-62
2021/12/11 06:33:56;;;;;;;;;;;;;;;4.01;69.54;99290.88;4455626;32;34134;-62
2021/12/11 06:36:26;;;;;;;;;;;;;;;3.98;70.00;99293.25;4472891;32;35062;-62
2021/12/11 06:38:55;;;;;;;;;;;;;;;4.13;69.38;99304.47;4452263;32;32614;-62
2021/12/11 06:41:25;;;;;;;;;;;;;;;4.39;68.68;99312.00;4468681;32;33801;-62
2021/12/11 06:43:53;;;;;;;;;;;;;;;4.45;68.43;99315.81;4473521;32;34203;-62
2021/12/11 06:46:20;;;;;;;;;;;;;;;4.09;69.57;99317.84;4469382;32;34244;-62
2021/12/11 06:48:47;;;;;;;;;;;;;;;3.29;71.89;99320.47;4469364;32;34260;-62
2021/12/11 06:51:14;;;;;;;;;;;;;;;3.25;72.38;99328.72;4440458;32;31796;-62
2021/12/11 06:53:50;;;;;;;;;;;;;;;3.20;72.76;99324.97;4470194;32;34137;-62
2021/12/11 06:56:18;;;;;;;;;;;;;;;3.04;72.83;99329.87;4465089;32;35063;-62
2021/12/11 06:58:45;;;;;;;;;;;;;;;2.94;73.40;99343.72;4453297;32;35197;-62
2021/12/11 07:01:13;;;;;;;;;;;;;;;3.31;72.01;99347.03;4455238;32;33576;-62
2021/12/11 07:03:41;;;;;;;;;;;;;;;3.60;70.89;99353.19;4465461;32;33928;-62
2021/12/11 07:06:09;;;;;;;;;;;;;;;3.64;70.81;99359.41;4449461;32;34274;-63
2021/12/11 07:08:38;;;;;;;;;;;;;;;3.97;69.59;99364.91;4442139;32;32157;-63
2021/12/11 07:11:07;;;;;;;;;;;;;;;4.02;69.18;99363.50;4454441;32;34257;-62
2021/12/11 07:13:34;;;;;;;;;;;;;;;4.14;68.51;99374.56;4468615;32;34369;-63
2021/12/11 07:16:02;;;;;;;;;;;;;;;4.28;67.73;99383.09;4444180;32;33399;-62
2021/12/11 07:18:31;;;;;;;;;;;;;;;4.48;66.97;99386.91;4475172;32;34567;-66
2021/12/11 07:20:58;;;;;;;;;;;;;;;3.98;69.06;99403.47;4453277;32;34329;-65
2021/12/11 07:23:25;;;;;;;;;;;;;;;4.30;67.61;99407.16;4480775;32;34916;-65
2021/12/11 07:25:53;;;;;;;;;;;;;;;4.71;66.39;99413.97;4469694;32;34250;-63
2021/12/11 07:28:23;;;;;;;;;;;;;;;4.85;65.62;99420.88;4476773;32;35048;-62
2021/12/11 07:30:51;;;;;;;;;;;;;;;5.00;65.31;99430.28;4465226;32;33256;-63
2021/12/11 07:33:18;;;;;;;;;;;;;;;4.81;66.13;99431.72;4468611;32;34361;-62
2021/12/11 07:35:46;;;;;;;;;;;;;;;4.76;66.47;99434.81;4474992;32;34165;-62
2021/12/11 07:38:13;;;;;;;;;;;;;;;4.77;65.97;99427.22;4461317;32;34106;-62
2021/12/11 07:40:43;;;;;;;;;;;;;;;3.97;68.76;99440.09;4469034;32;33977;-62
2021/12/11 07:43:10;;;;;;;;;;;;;;;3.88;69.12;99449.75;4466962;32;33523;-63
2021/12/11 07:45:37;;;;;;;;;;;;;;;3.71;69.61;99446.97;4468403;32;34870;-63
2021/12/11 07:48:05;;;;;;;;;;;;;;;3.56;70.26;99448.53;4455073;32;34386;-63
2021/12/11 07:50:33;;;;;;;;;;;;;;;3.67;69.38;99447.56;4463282;32;34406;-63
2021/12/11 07:53:00;;;;;;;;;;;;;;;3.63;69.93;99440.47;4463144;32;34893;-63
2021/12/11 07:55:27;;;;;;;;;;;;;;;3.33;70.75;99435.06;4442894;32;35023;-63
2021/12/11 07:57:54;;;;;;;;;;;;;;;3.80;69.15;99438.13;4466293;32;34416;-62
2021/12/11 08:00:23;;;;;;;;;;;;;;;3.20;71.06;99432.47;4453810;32;33195;-63
2021/12/11 08:02:50;;;;;;;;;;;;;;;3.28;70.44;99431.31;4462611;32;34192;-62
2021/12/11 08:05:18;;;;;;;;;;;;;;;3.11;71.18;99435.28;4469666;32;35413;-63
2021/12/11 08:07:45;;;;;;;;;;;;;;;3.25;70.67;99440.47;4466257;32;34466;-62
2021/12/11 08:10:14;;;;;;;;;;;;;;;3.60;69.57;99449.63;4471998;32;33603;-63
2021/12/11 08:12:41;;;;;;;;;;;;;;;3.78;68.90;99444.81;4469519;32;33368;-63
2021/12/11 08:15:10;;;;;;;;;;;;;;;3.60;69.56;99453.06;4477416;32;34135;-62
2021/12/11 08:17:38;;;;;;;;;;;;;;;3.64;69.64;99456.72;4470552;32;35355;-63
2021/12/11 08:20:06;;;;;;;;;;;;;;;3.71;69.40;99459.78;4466537;32;33225;-63
2021/12/11 08:22:33;;;;;;;;;;;;;;;3.68;68.63;99451.87;4482135;32;35067;-62
2021/12/11 08:25:01;;;;;;;;;;;;;;;3.48;69.96;99459.94;4463654;32;32318;-63
2021/12/11 08:27:28;;;;;;;;;;;;;;;3.86;68.68;99459.00;4479687;32;34160;-63
2021/12/11 08:29:55;;;;;;;;;;;;;;;4.00;68.65;99462.47;4473862;32;34197;-63
2021/12/11 08:32:24;;;;;;;;;;;;;;;4.12;67.62;99453.91;4457613;32;34838;-63
2021/12/11 08:34:54;;;;;;;;;;;;;;;4.16;67.87;99465.25;4456386;32;34016;-63
2021/12/11 08:37:23;;;;;;;;;;;;;;;3.96;68.32;99469.09;4474498;32;34251;-64
2021/12/11 08:39:50;;;;;;;;;;;;;;;4.93;64.30;99463.28;4475064;32;34342;-63
2021/12/11 08:42:20;;;;;;;;;;;;;;;3.96;67.75;99466.53;4447608;32;32187;-64
2021/12/11 08:44:53;;;;;;;;;;;;;;;3.80;68.61;99476.56;4471476;32;35066;-61
2021/12/11 08:47:21;;;;;;;;;;;;;;;3.80;68.96;99474.00;4470296;32;34420;-64
2021/12/11 08:49:50;;;;;;;;;;;;;;;4.39;65.83;99466.72;4469698;32;34192;-65
2021/12/11 08:52:19;;;;;;;;;;;;;;;3.28;69.55;99471.38;4473246;32;33034;-62
2021/12/11 08:54:47;;;;;;;;;;;;;;;3.26;70.32;99467.81;4473832;32;34250;-64
2021/12/11 08:57:16;;;;;;;;;;;;;;;3.42;69.73;99472.31;4475177;32;34443;-66
2021/12/11 08:59:45;;;;;;;;;;;;;;;3.04;70.89;99480.84;4476825;32;34262;-64
2021/12/11 09:02:24;;;;;;;;;;;;;;;3.56;68.90;99480.94;4469446;32;33896;-64
2021/12/11 09:04:55;;;;;;;;;;;;;;;3.47;69.28;99478.62;4464323;32;34767;-66
2021/12/11 09:07:30;;;;;;;;;;;;;;;3.53;69.26;99481.59;4465759;32;35134;-65
2021/12/11 09:10:10;;;;;;;;;;;;;;;3.48;69.48;99490.66;4469441;32;34138;-65
2021/12/11 09:12:40;;;;;;;;;;;;;;;3.52;69.31;99490.09;4467777;32;33798;-62
2021/12/11 09:15:28;;;;;;;;;;;;;;;3.58;69.45;99493.06;4468676;32;34932;-62
2021/12/11 09:18:07;;;;;;;;;;;;;;;3.77;67.95;99489.16;4468666;32;34433;-62
2021/12/11 09:20:40;;;;;;;;;;;;;;;4.17;66.98;99499.47;4468431;32;33108;-65
2021/12/11 09:23:15;;;;;;;;;;;;;;;4.04;67.54;99508.91;4468521;32;34967;-62
2021/12/11 09:25:42;;;;;;;;;;;;;;;4.11;66.97;99513.69;4469342;32;35007;-66
2021/12/11 09:28:13;;;;;;;;;;;;;;;3.82;68.23;99513.41;4456660;32;32531;-65
2021/12/11 09:31:18;;;;;;;;;;;;;;;4.41;65.37;99520.69;4471096;32;32711;-65
2021/12/11 09:33:48;;;;;;;;;;;;;;;3.82;68.16;99523.66;4400672;32;33921;-66
2021/12/11 09:36:17;;;;;;;;;;;;;;;4.70;64.23;99518.28;4414919;32;34304;-64
2021/12/11 09:38:48;;;;;;;;;;;;;;;4.76;64.00;99522.94;4450300;32;34703;-65
2021/12/11 09:41:19;;;;;;;;;;;;;;;3.81;67.57;99533.03;4458623;32;34224;-62
2021/12/11 09:44:03;;;;;;;;;;;;;;;4.29;65.10;99528.47;4471279;32;34305;-64
2021/12/11 09:46:33;;;;;;;;;;;;;;;4.22;65.84;99537.44;4471290;32;34888;-65
2021/12/11 09:49:01;;;;;;;;;;;;;;;4.03;66.94;99544.69;4456862;32;35199;-64
2021/12/11 09:51:32;;;;;;;;;;;;;;;3.80;68.20;99535.47;4470859;32;33599;-64
2021/12/11 09:54:00;;;;;;;;;;;;;;;3.26;69.61;99535.25;4457277;32;34210;-64
2021/12/11 09:56:29;;;;;;;;;;;;;;;3.47;69.50;99537.53;4470821;32;34067;-62
2021/12/11 09:58:58;;;;;;;;;;;;;;;3.71;68.00;99526.41;4484193;32;35353;-64
2021/12/11 10:01:30;;;;;;;;;;;;;;;3.45;69.65;99524.62;4473466;32;33338;-64
2021/12/11 10:04:01;;;;;;;;;;;;;;;4.16;66.41;99520.78;4480877;32;34160;-61
2021/12/11 10:06:40;;;;;;;;;;;;;;;4.18;66.04;99519.19;4479129;32;34251;-65
2021/12/11 10:09:20;;;;;;;;;;;;;;;3.50;68.77;99507.91;4472446;32;34488;-64
2021/12/11 10:11:55;;;;;;;;;;;;;;;3.27;69.88;99511.44;4480473;32;34343;-61
2021/12/11 10:14:24;;;;;;;;;;;;;;;3.13;70.51;99510.50;4456054;32;34295;-63
2021/12/11 10:16:52;;;;;;;;;;;;;;;3.68;68.59;99505.69;4469583;32;34190;-65
2021/12/11 10:19:20;;;;;;;;;;;;;;;4.60;65.37;99510.81;4473358;32;34469;-61
2021/12/11 10:21:50;;;;;;;;;;;;;;;4.13;66.46;99514.66;4478283;32;33505;-64
2021/12/11 10:24:20;;;;;;;;;;;;;;;4.21;65.86;99510.03;4476907;32;34240;-62
2021/12/11 10:26:50;;;;;;;;;;;;;;;3.76;68.16;99507.88;4480103;32;33166;-64
2021/12/11 10:29:22;;;;;;;;;;;;;;;4.21;66.64;99504.00;4472284;32;34390;-62
2021/12/11 10:31:52;;;;;;;;;;;;;;;3.81;67.79;99509.09;4480307;32;33292;-62
2021/12/11 10:34:20;;;;;;;;;;;;;;;3.31;69.72;99513.44;4478078;32;34105;-62
2021/12/11 10:37:00;;;;;;;;;;;;;;;3.13;70.86;99519.88;4474083;32;34401;-63
2021/12/11 10:39:27;;;;;;;;;;;;;;;3.49;70.17;99528.28;4468170;32;32783;-65
2021/12/11 10:41:55;;;;;;;;;;;;;;;4.37;66.67;99527.28;4460796;32;34364;-62
2021/12/11 10:44:42;;;;;;;;;;;;;;;4.36;66.28;99530.63;4476774;32;34584;-62
2021/12/11 10:47:11;;;;;;;;;;;;;;;4.07;67.69;99527.06;4469424;32;34132;-64
2021/12/11 10:49:39;;;;;;;;;;;;;;;3.77;69.61;99535.25;4469010;32;34874;-64
2021/12/11 10:52:08;;;;;;;;;;;;;;;4.03;68.53;99535.31;4469202;32;33036;-63
2021/12/11 10:54:36;;;;;;;;;;;;;;;3.73;69.60;99529.94;4469871;32;34710;-64
2021/12/11 10:57:03;;;;;;;;;;;;;;;3.47;70.46;99517.91;4470321;32;34808;-63
2021/12/11 10:59:32;;;;;;;;;;;;;;;3.15;71.51;99521.72;4456649;32;34375;-64
2021/12/11 11:02:06;;;;;;;;;;;;;;;3.62;70.02;99518.09;4455113;32;32128;-63
2021/12/11 11:04:35;;;;;;;;;;;;;;;3.71;69.50;99516.16;4455309;32;33363;-65
2021/12/11 11:07:03;;;;;;;;;;;;;;;3.92;69.17;99516.69;4466099;32;108660;-64
2021/12/11 11:09:30;;;;;;;;;;;;;;;3.81;69.75;99511.66;4443902;32;34538;-63
2021/12/11 11:11:59;;;;;;;;;;;;;;;4.04;69.10;99515.72;4470747;32;33409;-62
2021/12/11 11:14:27;;;;;;;;;;;;;;;3.81;69.17;99507.41;4470584;32;34939;-61
2021/12/11 11:16:55;;;;;;;;;;;;;;;3.92;68.96;99505.53;4470410;32;34158;-65
2021/12/11 11:19:23;;;;;;;;;;;;;;;3.83;69.14;99510.06;4456316;32;34507;-61
2021/12/11 11:21:56;;;;;;;;;;;;;;;3.38;70.46;99508.72;4470222;32;33496;-62
2021/12/11 11:24:25;;;;;;;;;;;;;;;3.60;70.10;99506.84;4478966;32;34782;-64
2021/12/11 11:26:53;;;;;;;;;;;;;;;4.68;66.10;99503.59;4474365;32;34744;-63
2021/12/11 11:29:21;;;;;;;;;;;;;;;3.58;69.99;99498.19;4456158;32;34148;-62
2021/12/11 11:31:49;;;;;;;;;;;;;;;3.74;69.50;99500.97;4474943;32;33779;-62
2021/12/11 11:34:17;;;;;;;;;;;;;;;3.29;71.39;99502.19;4478016;32;34236;-63
2021/12/11 11:36:45;;;;;;;;;;;;;;;3.49;70.47;99507.78;4470171;32;34905;-64
2021/12/11 11:39:18;;;;;;;;;;;;;;;4.06;68.50;99509.03;4471401;32;34057;-62
2021/12/11 11:41:48;;;;;;;;;;;;;;;3.80;69.06;99499.59;4481380;32;33525;-64
2021/12/11 11:44:15;;;;;;;;;;;;;;;3.90;68.72;99501.97;4469530;32;34403;-63
2021/12/11 11:46:43;;;;;;;;;;;;;;;3.68;70.02;99495.44;4469487;32;34286;-64
2021/12/11 11:49:10;;;;;;;;;;;;;;;4.50;67.20;99498.16;4482915;32;34941;-66
2021/12/11 11:51:40;;;;;;;;;;;;;;;4.73;66.29;99512.47;4455404;32;33605;-64
2021/12/11 11:54:08;;;;;;;;;;;;;;;4.78;66.22;99516.22;4469554;32;33769;-63
2021/12/11 11:56:37;;;;;;;;;;;;;;;5.18;64.66;99520.37;4469743;32;34647;-62
2021/12/11 11:59:05;;;;;;;;;;;;;;;5.12;65.16;99528.59;4469097;32;35201;-65
2021/12/11 12:01:35;;;;;;;;;;;;;;;4.84;65.83;99532.00;4469546;32;33454;-64
2021/12/11 12:04:02;;;;;;;;;;;;;;;4.85;65.47;99533.78;4469731;32;34172;-66
2021/12/11 12:06:33;;;;;;;;;;;;;;;5.18;64.65;99535.78;4469558;32;34558;-65
2021/12/11 12:09:05;;;;;;;;;;;;;;;5.69;62.97;99534.59;4469882;32;34199;-65
2021/12/11 12:11:33;;;;;;;;;;;;;;;5.18;64.40;99539.25;4457449;32;33540;-65
2021/12/11 12:14:02;;;;;;;;;;;;;;;5.20;64.49;99545.34;4469632;32;34100;-62
2021/12/11 12:16:31;;;;;;;;;;;;;;;5.12;64.55;99549.13;4469424;32;34032;-63
2021/12/11 12:18:59;;;;;;;;;;;;;;;5.29;64.27;99551.06;4469626;32;33828;-64
2021/12/11 12:21:26;;;;;;;;;;;;;;;5.66;63.06;99555.88;4469311;32;34179;-64
2021/12/11 12:23:53;;;;;;;;;;;;;;;5.91;62.26;99560.78;4469332;32;34701;-65
2021/12/11 12:26:22;;;;;;;;;;;;;;;6.02;61.85;99556.28;4460788;32;33447;-62
2021/12/11 12:28:49;;;;;;;;;;;;;;;6.12;61.68;99561.97;4473653;32;34480;-66
2021/12/11 12:31:19;;;;;;;;;;;;;;;6.31;61.13;99562.25;4470811;32;33438;-62
2021/12/11 12:33:47;;;;;;;;;;;;;;;6.58;60.34;99565.50;4471708;32;33300;-63
2021/12/11 12:36:14;;;;;;;;;;;;;;;6.57;60.21;99555.16;4471820;32;33948;-64
2021/12/11 12:38:42;;;;;;;;;;;;;;;6.63;60.04;99552.91;4471301;32;36541;-66
2021/12/11 12:41:29;;;;;;;;;;;;;;;6.39;60.48;99553.28;4457430;32;33226;-62
2021/12/11 12:46:58;;;;;;;;;;;;;;;6.63;59.71;99552.91;4471443;32;33626;-65
2021/12/11 12:49:28;;;;;;;;;;;;;;;6.91;58.29;99544.16;4457675;32;35201;-65
2021/12/11 12:51:56;;;;;;;;;;;;;;;6.09;61.08;99543.00;4471557;32;34180;-65
2021/12/11 12:54:24;;;;;;;;;;;;;;;5.37;63.83;99548.97;4457602;32;34082;-63
2021/12/11 12:56:55;;;;;;;;;;;;;;;6.40;60.53;99539.62;4471129;32;33856;-65
2021/12/11 12:59:24;;;;;;;;;;;;;;;6.21;60.62;99531.66;4456570;32;34946;-64
2021/12/11 13:01:56;;;;;;;;;;;;;;;5.37;63.64;99536.13;4457718;32;33494;-63
2021/12/11 13:04:28;;;;;;;;;;;;;;;4.88;65.76;99539.09;4471512;32;34055;-62
2021/12/11 13:06:56;;;;;;;;;;;;;;;4.58;66.91;99538.06;4471340;32;34964;-66
2021/12/11 13:09:28;;;;;;;;;;;;;;;5.84;62.88;99538.06;4471429;32;34574;-65
2021/12/11 13:11:55;;;;;;;;;;;;;;;5.61;63.02;99536.69;4471553;32;33498;-63
2021/12/11 13:14:23;;;;;;;;;;;;;;;5.07;65.47;99535.13;4471245;32;34018;-63
2021/12/11 13:16:52;;;;;;;;;;;;;;;4.72;66.53;99531.22;4457393;32;34072;-65
2021/12/11 13:19:21;;;;;;;;;;;;;;;5.16;65.28;99534.78;4470785;32;34309;-64
2021/12/11 13:21:53;;;;;;;;;;;;;;;4.70;65.95;99537.94;4456893;32;32865;-65
2021/12/11 13:24:21;;;;;;;;;;;;;;;4.81;65.76;99531.81;4471309;32;33960;-64
2021/12/11 13:26:50;;;;;;;;;;;;;;;4.49;67.15;99552.84;4470988;32;34035;-62
2021/12/11 13:29:18;;;;;;;;;;;;;;;4.43;67.55;99558.47;4471376;32;35347;-62